createdAt,value
2018-12-09T00:02:06.180Z,98093.04
2018-12-09T00:04:48.245Z,98074.66
2018-12-09T00:07:30.439Z,98065.67
2018-12-09T00:10:12.530Z,98049.17
2018-12-09T00:12:54.420Z,98053.27
2018-12-09T00:15:37.648Z,98050.89
2018-12-09T00:18:19.647Z,98044.95
2018-12-09T00:21:02.073Z,98053.38
2018-12-09T00:23:44.895Z,98053.38
2018-12-09T00:26:27.054Z,98059.35
2018-12-09T00:29:09.498Z,98061.97
2018-12-09T00:31:51.580Z,98054.73
2018-12-09T00:34:33.614Z,98062.56
2018-12-09T00:37:15.205Z,98052.59
2018-12-09T00:39:57.698Z,98044.98
2018-12-09T00:42:43.633Z,98046.12
2018-12-09T00:45:25.165Z,98042.63
2018-12-09T00:48:07.529Z,98037.94
2018-12-09T00:50:49.695Z,98034.74
2018-12-09T00:53:31.537Z,98043.39
2018-12-09T00:56:14.511Z,98033.95
2018-12-09T00:58:56.586Z,98036.61
2018-12-09T01:01:38.978Z,98050.03
2018-12-09T01:04:22.015Z,98066.64
2018-12-09T01:07:03.924Z,98053.80
2018-12-09T01:09:47.311Z,98061.86
2018-12-09T01:12:29.865Z,98091.23
2018-12-09T01:15:12.024Z,98083.92
2018-12-09T01:17:55.166Z,98069.48
2018-12-09T01:20:37.758Z,98051.98
2018-12-09T01:23:20.194Z,98059.73
2018-12-09T01:26:02.358Z,98062.97
2018-12-09T01:28:45.309Z,98056.45
2018-12-09T01:31:26.841Z,98071.13
2018-12-09T01:34:08.434Z,98058.28
2018-12-09T01:36:50.803Z,98058.61
2018-12-09T01:39:33.407Z,98064.59
2018-12-09T01:42:16.920Z,98052.47
2018-12-09T01:44:59.124Z,98066.71
2018-12-09T01:47:41.294Z,98065.29
2018-12-09T01:50:23.141Z,98065.22
2018-12-09T01:53:17.103Z,98068.94
2018-12-09T01:55:59.154Z,98076.35
2018-12-09T01:58:41.669Z,98092.90
2018-12-09T02:01:23.910Z,98092.09
2018-12-09T02:04:05.518Z,98093.30
2018-12-09T02:06:48.566Z,98086.74
2018-12-09T02:09:31.082Z,98088.61
2018-12-09T02:12:13.577Z,98075.72
2018-12-09T02:14:55.910Z,98085.83
2018-12-09T02:17:38.523Z,98069.86
2018-12-09T02:20:21.189Z,98075.48
2018-12-09T02:23:04.058Z,98072.95
2018-12-09T02:25:45.914Z,98070.88
2018-12-09T02:28:29.130Z,98071.38
2018-12-09T02:31:13.173Z,98084.37
2018-12-09T02:33:55.698Z,98077.89
2018-12-09T02:36:38.052Z,98096.02
2018-12-09T02:39:20.813Z,98103.30
2018-12-09T02:42:03.597Z,98106.44
2018-12-09T02:44:45.687Z,98108.52
2018-12-09T02:47:27.221Z,98114.34
2018-12-09T02:50:09.845Z,98114.70
2018-12-09T02:52:52.027Z,98116.88
2018-12-09T02:55:33.619Z,98121.04
2018-12-09T02:58:16.124Z,98113.81
2018-12-09T03:00:58.124Z,98106.84
2018-12-09T03:03:40.038Z,98112.83
2018-12-09T03:06:22.640Z,98114.38
2018-12-09T03:09:06.658Z,98108.34
2018-12-09T03:11:48.276Z,98101.88
2018-12-09T03:14:30.275Z,98102.80
2018-12-09T03:17:12.619Z,98107.23
2018-12-09T03:19:54.563Z,98101.66
2018-12-09T03:22:37.076Z,98111.67
2018-12-09T03:25:19.872Z,98116.16
2018-12-09T03:28:02.940Z,98118.11
2018-12-09T03:30:46.122Z,98113.18
2018-12-09T03:33:27.969Z,98113.27
2018-12-09T03:36:10.391Z,98110.70
2018-12-09T03:38:51.977Z,98107.23
2018-12-09T03:41:34.042Z,98122.50
2018-12-09T03:44:16.332Z,98133.86
2018-12-09T03:47:07.193Z,98123.34
2018-12-09T03:49:50.786Z,98126.13
2018-12-09T03:52:33.060Z,98133.41
2018-12-09T03:55:15.410Z,98129.14
2018-12-09T03:57:57.921Z,98127.91
2018-12-09T04:00:40.258Z,98110.48
2018-12-09T04:03:23.253Z,98106.09
2018-12-09T04:06:06.354Z,98113.89
2018-12-09T04:08:49.075Z,98116.46
2018-12-09T04:11:31.491Z,98128.34
2018-12-09T04:14:13.902Z,98136.98
2018-12-09T04:16:56.786Z,98153.70
2018-12-09T04:19:39.206Z,98150.06
2018-12-09T04:22:21.159Z,98151.95
2018-12-09T04:25:03.990Z,98157.94
2018-12-09T04:27:46.667Z,98150.22
2018-12-09T04:30:28.870Z,98146.92
2018-12-09T04:33:11.239Z,98140.98
2018-12-09T04:35:53.765Z,98139.03
2018-12-09T04:38:35.863Z,98147.45
2018-12-09T04:41:18.468Z,98148.69
2018-12-09T04:44:00.766Z,98150.30
2018-12-09T04:46:43.214Z,98158.45
2018-12-09T04:49:25.709Z,98147.19
2018-12-09T04:52:08.483Z,98142.31
2018-12-09T04:54:50.541Z,98152.08
2018-12-09T04:57:33.111Z,98152.53
2018-12-09T05:00:25.765Z,98149.11
2018-12-09T05:03:08.362Z,98144.05
2018-12-09T05:05:49.811Z,98150.44
2018-12-09T05:08:31.866Z,98148.66
2018-12-09T05:11:13.705Z,98164.14
2018-12-09T05:13:55.395Z,98164.68
2018-12-09T05:16:37.557Z,98152.70
2018-12-09T05:19:19.781Z,98167.34
2018-12-09T05:22:01.986Z,98172.17
2018-12-09T05:24:44.317Z,98177.41
2018-12-09T05:27:26.205Z,98185.79
2018-12-09T05:30:08.966Z,98181.34
2018-12-09T05:32:51.578Z,98181.34
2018-12-09T05:35:33.842Z,98194.92
2018-12-09T05:38:15.222Z,98196.61
2018-12-09T05:40:57.442Z,98198.69
2018-12-09T05:43:40.105Z,98200.02
2018-12-09T05:46:23.155Z,98210.27
2018-12-09T05:49:05.064Z,98193.77
2018-12-09T05:51:46.638Z,98198.12
2018-12-09T05:54:29.221Z,98193.02
2018-12-09T05:57:11.890Z,98199.41
2018-12-09T05:59:54.248Z,98200.30
2018-12-09T06:02:53.949Z,98200.30
2018-12-09T06:05:36.465Z,98212.36
2018-12-09T06:08:18.242Z,98226.19
2018-12-09T06:11:00.552Z,98220.20
2018-12-09T06:13:43.048Z,98230.53
2018-12-09T06:16:25.383Z,98227.47
2018-12-09T06:19:08.358Z,98230.61
2018-12-09T06:21:51.075Z,98229.24
2018-12-09T06:24:33.585Z,98236.63
2018-12-09T06:27:15.992Z,98235.80
2018-12-09T06:29:58.492Z,98243.51
2018-12-09T06:32:41.242Z,98240.13
2018-12-09T06:39:08.137Z,98242.75
2018-12-09T06:41:50.138Z,98239.33
2018-12-09T06:44:32.313Z,98241.10
2018-12-09T06:47:15.027Z,98243.59
2018-12-09T06:49:57.818Z,98246.13
2018-12-09T06:52:39.587Z,98248.53
2018-12-09T06:55:21.922Z,98242.91
2018-12-09T06:58:03.603Z,98251.06
2018-12-09T07:00:46.202Z,98257.90
2018-12-09T07:03:29.055Z,98264.77
2018-12-09T07:06:11.357Z,98254.00
2018-12-09T07:08:54.080Z,98260.34
2018-12-09T07:11:36.192Z,98265.20
2018-12-09T07:14:18.788Z,98278.67
2018-12-09T07:17:00.885Z,98278.71
2018-12-09T07:19:43.513Z,98288.20
2018-12-09T07:22:26.830Z,98295.59
2018-12-09T07:25:09.112Z,98305.48
2018-12-09T07:27:51.446Z,98303.84
2018-12-09T07:30:34.238Z,98302.82
2018-12-09T07:33:16.304Z,98304.03
2018-12-09T07:35:58.881Z,98303.22
2018-12-09T07:38:41.225Z,98316.52
2018-12-09T07:41:24.748Z,98315.60
2018-12-09T07:44:07.789Z,98320.34
2018-12-09T07:46:49.349Z,98333.61
2018-12-09T07:49:30.972Z,98316.16
2018-12-09T07:52:13.539Z,98337.95
2018-12-09T07:54:56.216Z,98330.75
2018-12-09T07:57:38.279Z,98335.01
2018-12-09T08:00:21.718Z,98344.38
2018-12-09T08:03:03.377Z,98345.17
2018-12-09T08:05:45.024Z,98359.20
2018-12-09T08:08:27.492Z,98370.48
2018-12-09T08:11:10.685Z,98380.05
2018-12-09T08:13:52.534Z,98376.67
2018-12-09T08:16:34.103Z,98388.30
2018-12-09T08:19:16.054Z,98387.97
2018-12-09T08:21:58.678Z,98394.88
2018-12-09T08:24:40.728Z,98406.02
2018-12-09T08:27:22.421Z,98408.99
2018-12-09T08:30:05.374Z,98422.38
2018-12-09T08:32:47.771Z,98431.97
2018-12-09T08:35:30.092Z,98448.25
2018-12-09T08:38:12.731Z,98456.14
2018-12-09T08:40:54.145Z,98467.56
2018-12-09T08:43:38.182Z,98466.04
2018-12-09T08:46:20.254Z,98472.64
2018-12-09T08:49:01.938Z,98480.75
2018-12-09T08:51:44.817Z,98469.28
2018-12-09T08:54:28.738Z,98469.76
2018-12-09T08:57:11.942Z,98472.45
2018-12-09T08:59:53.787Z,98477.50
2018-12-09T09:02:36.803Z,98486.50
2018-12-09T09:05:19.657Z,98487.34
2018-12-09T09:08:01.273Z,98485.06
2018-12-09T09:10:43.955Z,98490.08
2018-12-09T09:13:25.735Z,98479.58
2018-12-09T09:16:10.912Z,98500.24
2018-12-09T09:18:52.702Z,98505.03
2018-12-09T09:21:35.812Z,98507.56
2018-12-09T09:24:17.862Z,98519.59
2018-12-09T09:27:00.283Z,98521.11
2018-12-09T09:29:42.150Z,98525.55
2018-12-09T09:32:25.310Z,98530.63
2018-12-09T09:35:07.866Z,98541.54
2018-12-09T09:37:50.356Z,98538.27
2018-12-09T09:40:32.117Z,98546.03
2018-12-09T09:43:14.403Z,98545.16
2018-12-09T09:45:55.934Z,98552.80
2018-12-09T09:48:37.925Z,98558.35
2018-12-09T09:51:20.020Z,98559.77
2018-12-09T09:54:02.504Z,98559.17
2018-12-09T09:56:44.034Z,98562.91
2018-12-09T09:59:25.670Z,98564.28
2018-12-09T10:02:07.724Z,98563.34
2018-12-09T10:04:50.232Z,98573.19
2018-12-09T10:07:33.074Z,98575.56
2018-12-09T10:10:15.096Z,98583.30
2018-12-09T10:12:57.285Z,98580.32
2018-12-09T10:15:40.229Z,98593.36
2018-12-09T10:18:22.237Z,98594.61
2018-12-09T10:21:04.827Z,98586.25
2018-12-09T10:23:46.965Z,98592.17
2018-12-09T10:26:36.215Z,98597.59
2018-12-09T10:29:14.074Z,98600.98
2018-12-09T10:31:56.084Z,98597.86
2018-12-09T10:34:38.922Z,98598.11
2018-12-09T10:37:22.501Z,98600.45
2018-12-09T10:40:05.930Z,98602.31
2018-12-09T10:42:47.986Z,98597.19
2018-12-09T10:45:30.235Z,98613.56
2018-12-09T10:48:12.381Z,98613.63
2018-12-09T10:50:55.153Z,98615.31
2018-12-09T10:53:37.454Z,98616.27
2018-12-09T10:56:20.326Z,98621.53
2018-12-09T10:59:02.330Z,98630.34
2018-12-09T11:01:50.957Z,98629.99
2018-12-09T11:04:33.214Z,98642.41
2018-12-09T11:07:15.047Z,98639.06
2018-12-09T11:09:57.634Z,98638.89
2018-12-09T11:12:39.870Z,98633.22
2018-12-09T11:15:21.880Z,98646.91
2018-12-09T11:18:04.027Z,98649.77
2018-12-09T11:20:46.503Z,98656.32
2018-12-09T11:23:28.104Z,98663.72
2018-12-09T11:26:11.695Z,98661.06
2018-12-09T11:28:54.186Z,98661.44
2018-12-09T11:31:36.538Z,98663.52
2018-12-09T11:34:18.834Z,98673.73
2018-12-09T11:37:00.557Z,98679.52
2018-12-09T11:39:42.537Z,98674.27
2018-12-09T11:42:25.393Z,98682.00
2018-12-09T11:45:07.500Z,98680.25
2018-12-09T11:47:50.022Z,98689.01
2018-12-09T11:50:33.033Z,98683.03
2018-12-09T11:53:15.326Z,98697.56
2018-12-09T11:55:58.259Z,98691.58
2018-12-09T11:58:40.366Z,98687.84
2018-12-09T12:01:24.489Z,98699.95
2018-12-09T12:04:07.458Z,98702.61
2018-12-09T12:06:49.532Z,98706.70
2018-12-09T12:09:31.006Z,98701.64
2018-12-09T12:12:12.849Z,98694.62
2018-12-09T12:14:55.920Z,98718.15
2018-12-09T12:17:38.213Z,98715.25
2018-12-09T12:20:21.524Z,98711.75
2018-12-09T12:23:04.182Z,98713.09
2018-12-09T12:25:47.634Z,98714.81
2018-12-09T12:28:31.129Z,98714.87
2018-12-09T12:31:15.112Z,98712.67
2018-12-09T12:33:57.747Z,98725.86
2018-12-09T12:36:40.762Z,98738.35
2018-12-09T12:39:23.562Z,98730.84
2018-12-09T12:42:06.769Z,98737.77
2018-12-09T12:44:49.520Z,98738.61
2018-12-09T12:47:32.304Z,98752.47
2018-12-09T12:50:14.864Z,98746.06
2018-12-09T12:52:56.999Z,98753.09
2018-12-09T12:55:39.951Z,98753.95
2018-12-09T12:58:21.994Z,98765.50
2018-12-09T13:01:05.500Z,98766.44
2018-12-09T13:03:47.970Z,98768.55
2018-12-09T13:06:31.162Z,98761.59
2018-12-09T13:09:13.222Z,98775.19
2018-12-09T13:11:56.546Z,98781.18
2018-12-09T13:14:39.978Z,98785.23
2018-12-09T13:17:22.655Z,98786.44
2018-12-09T13:20:05.822Z,98787.20
2018-12-09T13:22:47.633Z,98789.30
2018-12-09T13:25:30.354Z,98791.82
2018-12-09T13:28:12.238Z,98798.66
2018-12-09T13:30:54.426Z,98806.29
2018-12-09T13:33:36.169Z,98804.86
2018-12-09T13:36:18.607Z,98805.62
2018-12-09T13:39:01.283Z,98816.30
2018-12-09T13:41:42.825Z,98827.17
2018-12-09T13:44:24.351Z,98829.20
2018-12-09T13:47:05.939Z,98835.51
2018-12-09T13:49:47.641Z,98841.09
2018-12-09T13:52:30.142Z,98841.91
2018-12-09T13:55:12.938Z,98852.91
2018-12-09T13:57:56.283Z,98858.50
2018-12-09T14:00:39.267Z,98867.92
2018-12-09T14:03:21.014Z,98865.76
2018-12-09T14:06:02.591Z,98875.94
2018-12-09T14:08:45.657Z,98883.13
2018-12-09T14:11:29.062Z,98890.71
2018-12-09T14:14:11.081Z,98889.72
2018-12-09T14:16:52.818Z,98898.61
2018-12-09T14:19:35.794Z,98904.06
2018-12-09T14:22:17.757Z,98913.89
2018-12-09T14:25:00.814Z,98922.52
2018-12-09T14:27:43.180Z,98924.11
2018-12-09T14:30:25.470Z,98942.95
2018-12-09T14:33:08.471Z,98938.70
2018-12-09T14:35:49.914Z,98936.57
2018-12-09T14:38:31.502Z,98936.05
2018-12-09T14:41:13.445Z,98946.88
2018-12-09T14:43:55.918Z,98949.42
2018-12-09T14:46:39.085Z,98948.72
2018-12-09T14:49:21.153Z,98961.27
2018-12-09T14:52:03.362Z,98971.97
2018-12-09T14:54:45.098Z,98980.93
2018-12-09T14:57:27.650Z,98992.58
2018-12-09T15:00:10.571Z,99001.67
2018-12-09T15:02:52.811Z,99009.89
2018-12-09T15:05:35.821Z,99024.59
2018-12-09T15:08:17.759Z,99035.50
2018-12-09T15:11:00.730Z,99065.38
2018-12-09T15:13:42.745Z,99058.80
2018-12-09T15:16:24.103Z,99076.87
2018-12-09T15:19:06.156Z,99068.05
2018-12-09T15:21:48.590Z,99080.47
2018-12-09T15:24:31.417Z,99091.13
2018-12-09T15:27:13.565Z,99097.09
2018-12-09T15:29:55.293Z,99099.91
2018-12-09T15:32:37.892Z,99098.49
2018-12-09T15:35:20.274Z,99103.59
2018-12-09T15:38:02.682Z,99113.00
2018-12-09T15:40:44.273Z,99120.50
2018-12-09T15:43:26.223Z,99121.20
2018-12-09T15:46:08.464Z,99122.30
2018-12-09T15:48:51.581Z,99127.84
2018-12-09T15:51:33.767Z,99135.61
2018-12-09T15:54:16.685Z,99140.39
2018-12-09T15:56:58.579Z,99148.45
2018-12-09T15:59:40.637Z,99147.56
2018-12-09T16:02:22.472Z,99148.92
2018-12-09T16:05:05.414Z,99150.66
2018-12-09T16:07:47.701Z,99163.31
2018-12-09T16:10:30.031Z,99180.52
2018-12-09T16:13:12.459Z,99180.03
2018-12-09T16:15:54.652Z,99185.66
2018-12-09T16:18:36.923Z,99204.07
2018-12-09T16:21:19.330Z,99206.55
2018-12-09T16:24:02.144Z,99215.64
2018-12-09T16:26:44.472Z,99222.09
2018-12-09T16:29:26.782Z,99224.25
2018-12-09T16:32:09.505Z,99239.08
2018-12-09T16:34:51.861Z,99262.28
2018-12-09T16:37:33.919Z,99268.45
2018-12-09T16:40:15.542Z,99273.02
2018-12-09T16:43:03.911Z,99295.05
2018-12-09T16:45:45.872Z,99276.05
2018-12-09T16:48:28.084Z,99278.66
2018-12-09T16:51:10.733Z,99290.66
2018-12-09T16:53:53.448Z,99294.92
2018-12-09T16:56:36.079Z,99303.89
2018-12-09T16:59:18.378Z,99307.19
2018-12-09T17:02:03.454Z,99318.22
2018-12-09T17:04:44.977Z,99316.41
2018-12-09T17:07:27.620Z,99312.58
2018-12-09T17:10:09.414Z,99326.36
2018-12-09T17:12:52.061Z,99342.30
2018-12-09T17:15:35.469Z,99343.25
2018-12-09T17:18:17.659Z,99351.84
2018-12-09T17:20:59.493Z,99363.41
2018-12-09T17:23:41.850Z,99363.45
2018-12-09T17:26:23.886Z,99378.00
2018-12-09T17:29:06.424Z,99389.59
2018-12-09T17:31:48.601Z,99392.14
2018-12-09T17:34:31.217Z,99407.13
2018-12-09T17:37:14.203Z,99422.13
2018-12-09T17:39:56.411Z,99419.11
2018-12-09T17:42:38.423Z,99423.80
2018-12-09T17:45:21.118Z,99434.92
2018-12-09T17:48:03.735Z,99440.41
2018-12-09T17:50:46.239Z,99445.96
2018-12-09T17:53:28.781Z,99462.64
2018-12-09T17:56:12.539Z,99461.30
2018-12-09T17:58:54.920Z,99469.83
2018-12-09T18:01:37.162Z,99472.02
2018-12-09T18:04:19.424Z,99481.86
2018-12-09T18:07:02.039Z,99491.70
2018-12-09T18:09:56.055Z,99497.69
2018-12-09T18:12:38.839Z,99513.98
2018-12-09T18:15:22.989Z,99518.69
2018-12-09T18:18:05.330Z,99526.00
2018-12-09T18:20:47.001Z,99527.73
2018-12-09T18:23:29.417Z,99529.86
2018-12-09T18:26:11.587Z,99540.99
2018-12-09T18:28:53.549Z,99545.70
2018-12-09T18:31:36.157Z,99549.56
2018-12-09T18:34:19.105Z,99561.96
2018-12-09T18:37:01.558Z,99572.24
2018-12-09T18:39:44.034Z,99576.10
2018-12-09T18:42:26.486Z,99582.95
2018-12-09T18:45:08.914Z,99588.52
2018-12-09T18:47:51.194Z,99602.22
2018-12-09T18:50:33.267Z,99598.78
2018-12-09T18:53:16.365Z,99609.48
2018-12-09T18:56:00.853Z,99616.34
2018-12-09T18:58:43.765Z,99622.33
2018-12-09T19:01:25.757Z,99631.31
2018-12-09T19:04:07.376Z,99650.16
2018-12-09T19:06:48.761Z,99654.44
2018-12-09T19:09:30.417Z,99663.81
2018-12-09T19:12:12.330Z,99674.55
2018-12-09T19:14:54.562Z,99674.55
2018-12-09T19:17:36.155Z,99674.58
2018-12-09T19:20:17.814Z,99698.97
2018-12-09T19:23:00.236Z,99701.08
2018-12-09T19:25:42.545Z,99715.22
2018-12-09T19:28:24.091Z,99721.20
2018-12-09T19:31:05.566Z,99724.62
2018-12-09T19:33:46.911Z,99727.19
2018-12-09T19:36:28.646Z,99737.03
2018-12-09T19:39:10.407Z,99744.72
2018-12-09T19:41:52.806Z,99746.89
2018-12-09T19:44:34.521Z,99747.30
2018-12-09T19:47:16.915Z,99747.73
2018-12-09T19:49:59.462Z,99762.30
2018-12-09T19:52:42.014Z,99760.57
2018-12-09T19:55:24.679Z,99781.98
2018-12-09T19:58:06.924Z,99792.25
2018-12-09T20:00:49.718Z,99790.97
2018-12-09T20:03:32.050Z,99801.22
2018-12-09T20:06:14.491Z,99797.79
2018-12-09T20:08:57.655Z,99804.20
2018-12-09T20:11:39.492Z,99809.34
2018-12-09T20:14:21.546Z,99810.23
2018-12-09T20:17:04.454Z,99806.80
2018-12-09T20:19:46.325Z,99813.67
2018-12-09T20:22:29.075Z,99812.80
2018-12-09T20:25:11.560Z,99808.94
2018-12-09T20:27:54.271Z,99812.78
2018-12-09T20:30:36.536Z,99819.20
2018-12-09T20:33:19.291Z,99826.89
2018-12-09T20:36:03.133Z,99828.58
2018-12-09T20:38:45.646Z,99843.13
2018-12-09T20:41:28.254Z,99849.55
2018-12-09T20:44:10.991Z,99848.70
2018-12-09T20:46:52.885Z,99853.73
2018-12-09T20:49:35.477Z,99851.23
2018-12-09T20:52:18.010Z,99855.03
2018-12-09T20:55:01.234Z,99848.55
2018-12-09T20:57:43.949Z,99863.88
2018-12-09T21:00:26.021Z,99867.75
2018-12-09T21:03:09.608Z,99865.19
2018-12-09T21:05:52.279Z,99876.69
2018-12-09T21:08:34.812Z,99882.23
2018-12-09T21:11:16.931Z,99886.52
2018-12-09T21:13:59.725Z,99888.62
2018-12-09T21:16:42.111Z,99889.44
2018-12-09T21:19:26.468Z,99896.30
2018-12-09T21:22:08.617Z,99899.71
2018-12-09T21:24:51.363Z,99911.67
2018-12-09T21:27:34.093Z,99915.05
2018-12-09T21:30:16.977Z,99917.59
2018-12-09T21:33:02.807Z,99914.12
2018-12-09T21:35:45.944Z,99921.47
2018-12-09T21:38:27.675Z,99929.15
2018-12-09T21:41:10.540Z,99936.38
2018-12-09T21:43:53.790Z,99939.44
2018-12-09T21:46:36.384Z,99942.83
2018-12-09T21:49:18.700Z,99948.38
2018-12-09T21:52:01.931Z,99954.70
2018-12-09T21:54:44.231Z,99957.23
2018-12-09T21:57:26.439Z,99961.88
2018-12-09T22:00:09.538Z,99960.92
2018-12-09T22:02:52.358Z,99963.84
2018-12-09T22:05:34.853Z,99971.94
2018-12-09T22:08:17.702Z,99979.16
2018-12-09T22:10:59.714Z,99982.62
2018-12-09T22:13:42.545Z,99982.73
2018-12-09T22:16:25.049Z,99985.70
2018-12-09T22:19:07.427Z,99995.89
2018-12-09T22:21:50.950Z,99988.66
2018-12-09T22:24:33.175Z,99995.00
2018-12-09T22:27:15.900Z,100002.61
2018-12-09T22:29:57.998Z,100013.37
2018-12-09T22:32:40.902Z,100016.33
2018-12-09T22:39:00.835Z,100026.91
2018-12-09T22:41:42.797Z,100028.16
2018-12-09T22:44:25.082Z,100034.95
2018-12-09T22:47:07.733Z,100047.23
2018-12-09T22:49:50.809Z,100048.44
2018-12-09T22:52:32.866Z,100057.84
2018-12-09T22:55:15.518Z,100064.31
2018-12-09T22:57:58.152Z,100061.86
2018-12-09T23:00:45.308Z,100068.75
2018-12-09T23:03:28.423Z,100069.20
2018-12-09T23:06:11.086Z,100071.81
2018-12-09T23:08:53.644Z,100078.70
2018-12-09T23:11:35.934Z,100086.88
2018-12-09T23:14:18.664Z,100087.33
2018-12-09T23:17:01.358Z,100084.83
2018-12-09T23:19:44.175Z,100093.34
2018-12-09T23:22:26.102Z,100095.02
2018-12-09T23:25:08.849Z,100108.16
2018-12-09T23:27:50.969Z,100109.78
2018-12-09T23:30:33.444Z,100114.84
2018-12-09T23:33:16.535Z,100119.53
2018-12-09T23:35:58.965Z,100123.88
2018-12-09T23:38:41.369Z,100125.11
2018-12-09T23:41:24.372Z,100140.86
2018-12-09T23:44:07.393Z,100132.64
2018-12-09T23:46:49.726Z,100140.38
2018-12-09T23:49:32.601Z,100148.50
2018-12-09T23:52:14.721Z,100147.24
2018-12-09T23:54:57.630Z,100145.56
2018-12-09T23:57:40.453Z,100146.03
